createdAt,value
2019-02-28T00:01:49.829Z,99011.00
2019-02-28T00:04:16.948Z,99013.00
2019-02-28T00:06:45.096Z,99014.00
2019-02-28T00:09:13.008Z,99010.00
2019-02-28T00:11:40.239Z,99013.00
2019-02-28T00:14:07.363Z,99006.00
2019-02-28T00:16:54.250Z,99011.00
2019-02-28T00:19:23.948Z,99006.00
2019-02-28T00:21:50.449Z,99005.00
2019-02-28T00:24:17.468Z,99007.00
2019-02-28T00:26:47.564Z,99000.00
2019-02-28T00:29:13.648Z,98994.00
2019-02-28T00:31:40.770Z,98992.00
2019-02-28T00:34:07.808Z,98993.00
2019-02-28T00:36:34.988Z,98998.00
2019-02-28T00:39:04.014Z,98997.00
2019-02-28T00:41:31.588Z,98995.00
2019-02-28T00:43:58.710Z,98994.00
2019-02-28T00:46:25.929Z,98996.00
2019-02-28T00:48:54.145Z,98995.00
2019-02-28T00:51:21.368Z,98984.00
2019-02-28T00:53:48.569Z,98983.00
2019-02-28T00:56:17.528Z,98982.00
2019-02-28T00:58:44.609Z,98986.00
2019-02-28T01:01:12.623Z,98986.00
2019-02-28T01:03:40.148Z,98972.00
2019-02-28T01:06:10.556Z,98963.00
2019-02-28T01:08:36.288Z,98951.00
2019-02-28T01:11:03.572Z,98949.00
2019-02-28T01:13:30.689Z,98943.00
2019-02-28T01:15:57.808Z,98944.00
2019-02-28T01:18:24.908Z,98933.00
2019-02-28T01:20:52.068Z,98927.00
2019-02-28T01:23:19.610Z,98934.00
2019-02-28T01:25:46.708Z,98933.00
2019-02-28T01:28:13.828Z,98925.00
2019-02-28T01:30:41.246Z,98927.00
2019-02-28T01:33:08.549Z,98923.00
2019-02-28T01:35:37.528Z,98924.00
2019-02-28T01:38:04.569Z,98917.00
2019-02-28T01:40:31.689Z,98921.00
2019-02-28T01:42:58.769Z,98919.00
2019-02-28T01:45:25.908Z,98919.00
2019-02-28T01:47:53.028Z,98912.00
2019-02-28T01:50:20.249Z,98918.00
2019-02-28T01:52:47.328Z,98922.00
2019-02-28T01:55:14.471Z,98920.00
2019-02-28T01:57:43.740Z,98906.00
2019-02-28T02:00:16.728Z,98915.00
2019-02-28T02:02:43.773Z,98906.00
2019-02-28T02:05:11.009Z,98903.00
2019-02-28T02:07:38.269Z,98901.00
2019-02-28T02:10:12.390Z,98898.00
2019-02-28T02:12:39.568Z,98897.00
2019-02-28T02:15:10.149Z,98894.00
2019-02-28T02:17:37.427Z,98896.00
2019-02-28T02:20:08.949Z,98891.00
2019-02-28T02:22:36.031Z,98889.00
2019-02-28T02:25:05.181Z,98876.00
2019-02-28T02:27:32.288Z,98883.00
2019-02-28T02:29:59.428Z,98879.00
2019-02-28T02:32:26.530Z,98876.00
2019-02-28T02:34:53.929Z,98859.00
2019-02-28T02:37:21.054Z,98864.00
2019-02-28T02:39:50.161Z,98856.00
2019-02-28T02:42:17.189Z,98865.00
2019-02-28T02:44:44.332Z,98851.00
2019-02-28T02:47:11.510Z,98857.00
2019-02-28T02:49:38.613Z,98860.00
2019-02-28T02:52:05.698Z,98851.00
2019-02-28T02:54:32.790Z,98853.00
2019-02-28T02:56:59.937Z,98850.00
2019-02-28T02:59:27.067Z,98849.00
2019-02-28T03:01:56.253Z,98851.00
2019-02-28T03:04:23.545Z,98841.00
2019-02-28T03:06:50.780Z,98839.00
2019-02-28T03:09:17.866Z,98826.00
2019-02-28T03:11:44.969Z,98830.00
2019-02-28T03:14:16.433Z,98822.00
2019-02-28T03:16:41.111Z,98827.00
2019-02-28T03:19:08.256Z,98818.00
2019-02-28T03:21:35.593Z,98823.00
2019-02-28T03:24:02.860Z,98814.00
2019-02-28T03:26:29.930Z,98813.00
2019-02-28T03:28:57.028Z,98811.00
2019-02-28T03:31:24.119Z,98806.00
2019-02-28T03:33:51.350Z,98811.00
2019-02-28T03:36:18.435Z,98807.00
2019-02-28T03:38:49.658Z,98806.00
2019-02-28T03:41:17.843Z,98799.00
2019-02-28T03:43:44.199Z,98788.00
2019-02-28T03:46:11.650Z,98796.00
2019-02-28T03:48:38.891Z,98791.00
2019-02-28T03:51:05.994Z,98796.00
2019-02-28T03:53:33.112Z,98795.00
2019-02-28T03:56:00.216Z,98803.00
2019-02-28T03:58:27.409Z,98800.00
2019-02-28T04:00:54.470Z,98796.00
2019-02-28T04:03:21.659Z,98793.00
2019-02-28T04:05:48.786Z,98788.00
2019-02-28T04:08:16.067Z,98786.00
2019-02-28T04:10:43.158Z,98777.00
2019-02-28T04:13:10.370Z,98782.00
2019-02-28T04:15:37.412Z,98785.00
2019-02-28T04:18:07.710Z,98776.00
2019-02-28T04:20:37.405Z,98767.00
2019-02-28T04:23:02.662Z,98766.00
2019-02-28T04:25:29.736Z,98769.00
2019-02-28T04:27:56.776Z,98756.00
2019-02-28T04:30:23.868Z,98753.00
2019-02-28T04:32:50.969Z,98755.00
2019-02-28T04:35:24.341Z,98755.00
2019-02-28T04:37:47.348Z,98746.00
2019-02-28T04:40:14.687Z,98739.00
2019-02-28T04:42:41.784Z,98750.00
2019-02-28T04:45:12.148Z,98750.00
2019-02-28T04:47:40.444Z,98753.00
2019-02-28T04:50:10.186Z,98748.00
2019-02-28T04:52:37.268Z,98744.00
2019-02-28T04:55:06.271Z,98744.00
2019-02-28T04:57:33.467Z,98747.00
2019-02-28T05:00:00.629Z,98740.00
2019-02-28T05:02:27.668Z,98744.00
2019-02-28T05:04:54.788Z,98738.00
2019-02-28T05:07:21.988Z,98735.00
2019-02-28T05:09:49.095Z,98733.00
2019-02-28T05:12:16.208Z,98729.00
2019-02-28T05:14:43.288Z,98727.00
2019-02-28T05:17:10.467Z,98728.00
2019-02-28T05:19:37.588Z,98719.00
2019-02-28T05:22:04.745Z,98716.00
2019-02-28T05:24:31.868Z,98719.00
2019-02-28T05:27:00.313Z,98718.00
2019-02-28T05:29:27.948Z,98721.00
2019-02-28T05:31:55.089Z,98718.00
2019-02-28T05:34:22.208Z,98719.00
2019-02-28T05:36:49.309Z,98724.00
2019-02-28T05:39:16.583Z,98712.00
2019-02-28T05:41:49.117Z,98709.00
2019-02-28T05:44:13.190Z,98713.00
2019-02-28T05:46:40.285Z,98710.00
2019-02-28T05:49:08.712Z,98713.00
2019-02-28T05:51:36.107Z,98699.00
2019-02-28T05:54:03.271Z,98701.00
2019-02-28T05:56:33.235Z,98700.00
2019-02-28T05:58:59.447Z,98711.00
2019-02-28T06:01:26.548Z,98699.00
2019-02-28T06:03:53.727Z,98698.00
2019-02-28T06:06:20.953Z,98705.00
2019-02-28T06:08:48.248Z,98702.00
2019-02-28T06:11:15.448Z,98707.00
2019-02-28T06:13:42.656Z,98704.00
2019-02-28T06:16:12.364Z,98698.00
2019-02-28T06:18:38.767Z,98702.00
2019-02-28T06:21:05.868Z,98696.00
2019-02-28T06:23:33.029Z,98700.00
2019-02-28T06:26:00.780Z,98697.00
2019-02-28T06:28:30.972Z,98692.00
2019-02-28T06:30:57.427Z,98696.00
2019-02-28T06:33:24.627Z,98693.00
2019-02-28T06:35:53.673Z,98685.00
2019-02-28T06:38:20.868Z,98682.00
2019-02-28T06:40:47.928Z,98681.00
2019-02-28T06:43:15.090Z,98689.00
2019-02-28T06:45:42.303Z,98689.00
2019-02-28T06:48:09.528Z,98692.00
2019-02-28T06:50:36.608Z,98694.00
2019-02-28T06:53:03.707Z,98687.00
2019-02-28T06:55:30.869Z,98683.00
2019-02-28T06:57:58.899Z,98686.00
2019-02-28T07:00:27.007Z,98683.00
2019-02-28T07:02:54.128Z,98680.00
2019-02-28T07:05:24.787Z,98685.00
2019-02-28T07:07:50.412Z,98685.00
2019-02-28T07:10:17.549Z,98680.00
2019-02-28T07:12:49.470Z,98685.00
2019-02-28T07:15:16.640Z,98668.00
2019-02-28T07:17:46.303Z,98669.00
2019-02-28T07:20:18.533Z,98676.00
2019-02-28T07:22:45.960Z,98666.00
2019-02-28T07:25:13.880Z,98666.00
2019-02-28T07:27:41.400Z,98664.00
2019-02-28T07:30:18.558Z,98650.00
2019-02-28T07:32:45.320Z,98656.00
2019-02-28T07:35:12.494Z,98651.00
2019-02-28T07:37:39.574Z,98652.00
2019-02-28T07:40:17.064Z,98642.00
2019-02-28T07:42:44.573Z,98640.00
2019-02-28T07:45:13.754Z,98635.00
2019-02-28T07:47:40.834Z,98646.00
2019-02-28T07:50:14.416Z,98642.00
2019-02-28T07:52:41.634Z,98629.00
2019-02-28T07:55:14.536Z,98630.00
2019-02-28T07:57:41.682Z,98619.00
2019-02-28T08:00:30.454Z,98613.00
2019-02-28T08:02:57.493Z,98620.00
2019-02-28T08:05:29.650Z,98601.00
2019-02-28T08:07:53.741Z,98610.00
2019-02-28T08:10:26.940Z,98608.00
2019-02-28T08:12:54.053Z,98605.00
2019-02-28T08:15:25.534Z,98606.00
2019-02-28T08:17:52.708Z,98612.00
2019-02-28T08:20:20.334Z,98597.00
2019-02-28T08:22:47.514Z,98605.00
2019-02-28T08:25:15.299Z,98591.00
2019-02-28T08:27:42.453Z,98593.00
2019-02-28T08:30:31.654Z,98593.00
2019-02-28T08:32:58.734Z,98582.00
2019-02-28T08:35:25.833Z,98576.00
2019-02-28T08:37:56.932Z,98574.00
2019-02-28T08:40:27.171Z,98574.00
2019-02-28T08:42:54.673Z,98566.00
2019-02-28T08:45:21.937Z,98572.00
2019-02-28T08:47:49.036Z,98564.00
2019-02-28T08:50:23.599Z,98564.00
2019-02-28T08:53:02.697Z,98564.00
2019-02-28T08:55:29.795Z,98557.00
2019-02-28T08:58:03.987Z,98571.00
2019-02-28T09:00:31.282Z,98557.00
2019-02-28T09:02:55.215Z,98552.00
2019-02-28T09:05:26.109Z,98543.00
2019-02-28T09:07:52.196Z,98545.00
2019-02-28T09:10:22.096Z,98544.00
2019-02-28T09:12:49.173Z,98545.00
2019-02-28T09:15:18.014Z,98544.00
2019-02-28T09:17:46.014Z,98545.00
2019-02-28T09:20:14.933Z,98539.00
2019-02-28T09:22:42.053Z,98534.00
2019-02-28T09:25:22.943Z,98538.00
2019-02-28T09:27:50.513Z,98520.00
2019-02-28T09:30:41.680Z,98522.00
2019-02-28T09:33:08.799Z,98518.00
2019-02-28T09:35:36.034Z,98515.00
2019-02-28T09:38:08.038Z,98505.00
2019-02-28T09:40:32.774Z,98505.00
2019-02-28T09:42:59.934Z,98501.00
2019-02-28T09:45:32.074Z,98493.00
2019-02-28T09:48:01.973Z,98493.00
2019-02-28T09:50:28.154Z,98494.00
2019-02-28T09:52:55.630Z,98494.00
2019-02-28T09:55:22.814Z,98495.00
2019-02-28T09:57:53.841Z,98495.00
2019-02-28T10:00:21.035Z,98492.00
2019-02-28T10:02:48.182Z,98483.00
2019-02-28T10:05:15.536Z,98478.00
2019-02-28T10:07:42.754Z,98472.00
2019-02-28T10:10:23.268Z,98474.00
2019-02-28T10:12:50.497Z,98480.00
2019-02-28T10:15:21.855Z,98467.00
2019-02-28T10:17:49.094Z,98473.00
2019-02-28T10:20:40.274Z,98462.00
2019-02-28T10:23:07.377Z,98470.00
2019-02-28T10:25:40.974Z,98471.00
2019-02-28T10:28:03.855Z,98463.00
2019-02-28T10:30:32.439Z,98461.00
2019-02-28T10:32:59.895Z,98460.00
2019-02-28T10:35:26.934Z,98452.00
2019-02-28T10:37:56.994Z,98448.00
2019-02-28T10:40:31.155Z,98447.00
2019-02-28T10:42:58.354Z,98445.00
2019-02-28T10:45:26.055Z,98439.00
2019-02-28T10:47:53.274Z,98438.00
2019-02-28T10:50:33.336Z,98438.00
2019-02-28T10:53:04.037Z,98436.00
2019-02-28T10:55:28.435Z,98432.00
2019-02-28T10:57:55.955Z,98421.00
2019-02-28T11:00:33.716Z,98421.00
2019-02-28T11:03:01.664Z,98426.00
2019-02-28T11:05:31.184Z,98406.00
2019-02-28T11:07:58.801Z,98418.00
2019-02-28T11:10:34.995Z,98417.00
2019-02-28T11:13:00.256Z,98415.00
2019-02-28T11:15:27.961Z,98414.00
2019-02-28T11:17:55.057Z,98404.00
2019-02-28T11:20:25.450Z,98398.00
2019-02-28T11:22:51.636Z,98398.00
2019-02-28T11:25:21.742Z,98391.00
2019-02-28T11:27:48.899Z,98390.00
2019-02-28T11:30:23.612Z,98394.00
2019-02-28T11:32:50.769Z,98395.00
2019-02-28T11:35:20.101Z,98391.00
2019-02-28T11:37:47.031Z,98383.00
2019-02-28T11:40:21.750Z,98383.00
2019-02-28T11:42:48.970Z,98380.00
2019-02-28T11:45:25.501Z,98375.00
2019-02-28T11:47:55.550Z,98377.00
2019-02-28T11:50:22.670Z,98380.00
2019-02-28T11:52:49.803Z,98378.00
2019-02-28T11:55:20.313Z,98389.00
2019-02-28T11:57:46.291Z,98384.00
2019-02-28T12:00:21.482Z,98372.00
2019-02-28T12:02:53.339Z,98375.00
2019-02-28T12:05:17.626Z,98362.00
2019-02-28T12:07:44.722Z,98359.00
2019-02-28T12:10:12.282Z,98354.00
2019-02-28T12:12:41.557Z,98340.00
2019-02-28T12:15:19.322Z,98342.00
2019-02-28T12:17:46.425Z,98340.00
2019-02-28T12:20:14.584Z,98344.00
2019-02-28T12:22:43.615Z,98335.00
2019-02-28T12:25:39.549Z,98335.00
2019-02-28T12:28:06.725Z,98331.00
2019-02-28T12:30:34.942Z,98328.00
2019-02-28T12:33:02.111Z,98333.00
2019-02-28T12:35:49.061Z,98331.00
2019-02-28T12:38:16.144Z,98325.00
2019-02-28T12:40:45.749Z,98318.00
2019-02-28T12:43:13.562Z,98308.00
2019-02-28T12:45:46.424Z,98307.00
2019-02-28T12:48:13.701Z,98310.00
2019-02-28T12:50:41.884Z,98305.00
2019-02-28T12:53:09.003Z,98314.00
2019-02-28T12:58:36.558Z,98296.00
2019-02-28T13:01:00.100Z,98289.00
2019-02-28T13:03:26.467Z,98288.00
2019-02-28T13:05:53.769Z,98283.00
2019-02-28T13:08:20.905Z,98283.00
2019-02-28T13:10:48.194Z,98275.00
2019-02-28T13:13:15.563Z,98274.00
2019-02-28T13:15:45.572Z,98263.00
2019-02-28T13:18:12.125Z,98268.00
2019-02-28T13:20:39.802Z,98270.00
2019-02-28T13:23:07.124Z,98265.00
2019-02-28T13:25:34.273Z,98265.00
2019-02-28T13:28:01.451Z,98258.00
2019-02-28T13:30:28.612Z,98256.00
2019-02-28T13:32:55.665Z,98264.00
2019-02-28T13:35:30.404Z,98254.00
2019-02-28T13:37:57.664Z,98253.00
2019-02-28T13:40:24.842Z,98239.00
2019-02-28T13:42:52.088Z,98252.00
2019-02-28T13:45:23.120Z,98236.00
2019-02-28T13:47:50.022Z,98244.00
2019-02-28T13:50:41.704Z,98248.00
2019-02-28T13:53:17.301Z,98240.00
2019-02-28T13:55:38.561Z,98257.00
2019-02-28T13:58:05.799Z,98237.00
2019-02-28T14:00:35.134Z,98221.00
2019-02-28T14:03:10.358Z,98238.00
2019-02-28T14:05:40.656Z,98245.00
2019-02-28T14:08:11.214Z,98231.00
2019-02-28T14:10:36.116Z,98244.00
2019-02-28T14:13:03.341Z,98239.00
2019-02-28T14:15:41.290Z,98242.00
2019-02-28T14:18:10.852Z,98244.00
2019-02-28T14:20:37.446Z,98238.00
2019-02-28T14:23:04.603Z,98225.00
2019-02-28T14:25:31.725Z,98225.00
2019-02-28T14:28:00.279Z,98229.00
2019-02-28T14:30:28.048Z,98227.00
2019-02-28T14:32:55.385Z,98231.00
2019-02-28T14:35:26.530Z,98223.00
2019-02-28T14:37:55.885Z,98232.00
2019-02-28T14:40:23.630Z,98226.00
2019-02-28T14:42:50.872Z,98225.00
2019-02-28T14:45:22.116Z,98231.00
2019-02-28T14:47:56.904Z,98220.00
2019-02-28T14:50:20.309Z,98224.00
2019-02-28T14:52:50.240Z,98215.00
2019-02-28T14:55:21.646Z,98211.00
2019-02-28T14:57:49.513Z,98213.00
2019-02-28T15:00:30.089Z,98209.00
2019-02-28T15:03:02.832Z,98203.00
2019-02-28T15:05:36.563Z,98208.00
2019-02-28T15:08:04.022Z,98204.00
2019-02-28T15:10:34.207Z,98195.00
2019-02-28T15:13:00.825Z,98191.00
2019-02-28T15:15:27.950Z,98192.00
2019-02-28T15:17:55.168Z,98193.00
2019-02-28T15:20:22.275Z,98198.00
2019-02-28T15:22:52.515Z,98184.00
2019-02-28T15:25:28.469Z,98186.00
2019-02-28T15:27:57.319Z,98185.00
2019-02-28T15:30:35.547Z,98179.00
2019-02-28T15:33:02.693Z,98173.00
2019-02-28T15:35:30.001Z,98177.00
2019-02-28T15:37:57.334Z,98171.00
2019-02-28T15:40:34.842Z,98170.00
2019-02-28T15:43:01.936Z,98168.00
2019-02-28T15:45:28.994Z,98166.00
2019-02-28T15:47:58.992Z,98171.00
2019-02-28T15:50:25.501Z,98163.00
2019-02-28T15:52:53.042Z,98157.00
2019-02-28T15:55:21.401Z,98160.00
2019-02-28T15:57:48.442Z,98164.00
2019-02-28T16:00:22.034Z,98155.00
2019-02-28T16:02:49.041Z,98165.00
2019-02-28T16:05:16.386Z,98160.00
2019-02-28T16:07:43.941Z,98166.00
2019-02-28T16:10:18.580Z,98163.00
2019-02-28T16:12:46.531Z,98172.00
2019-02-28T16:15:15.047Z,98165.00
2019-02-28T16:17:42.196Z,98178.00
2019-02-28T16:20:12.316Z,98167.00
2019-02-28T16:22:39.457Z,98173.00
2019-02-28T16:25:14.784Z,98174.00
2019-02-28T16:27:42.892Z,98178.00
2019-02-28T16:30:16.653Z,98167.00
2019-02-28T16:32:45.614Z,98170.00
2019-02-28T16:35:14.572Z,98173.00
2019-02-28T16:37:42.098Z,98172.00
2019-02-28T16:40:27.023Z,98164.00
2019-02-28T16:42:54.356Z,98173.00
2019-02-28T16:45:27.317Z,98184.00
2019-02-28T16:47:55.620Z,98178.00
2019-02-28T16:50:23.493Z,98182.00
2019-02-28T16:52:50.784Z,98187.00
2019-02-28T16:55:17.983Z,98189.00
2019-02-28T16:57:47.046Z,98187.00
2019-02-28T17:00:16.146Z,98190.00
2019-02-28T17:02:43.363Z,98197.00
2019-02-28T17:05:11.006Z,98199.00
2019-02-28T17:07:40.450Z,98202.00
2019-02-28T17:10:24.664Z,98211.00
2019-02-28T17:13:10.004Z,98219.00
2019-02-28T17:15:41.902Z,98218.00
2019-02-28T17:18:10.767Z,98220.00
2019-02-28T17:20:40.671Z,98230.00
2019-02-28T17:23:07.083Z,98226.00
2019-02-28T17:25:34.484Z,98236.00
2019-02-28T17:28:06.102Z,98230.00
2019-02-28T17:30:36.304Z,98231.00
2019-02-28T17:33:05.801Z,98240.00
2019-02-28T17:35:33.874Z,98238.00
2019-02-28T17:38:02.089Z,98247.00
2019-02-28T17:40:29.367Z,98249.00
2019-02-28T17:42:56.543Z,98246.00
2019-02-28T17:45:24.743Z,98245.00
2019-02-28T17:48:34.845Z,98249.00
2019-02-28T17:51:15.022Z,98245.00
2019-02-28T17:53:50.882Z,98240.00
2019-02-28T17:56:50.383Z,98243.00
2019-02-28T17:59:43.923Z,98239.00
2019-02-28T18:02:38.158Z,98251.00
2019-02-28T18:05:37.844Z,98243.00
2019-02-28T18:08:37.534Z,98248.00
2019-02-28T18:11:19.702Z,98239.00
2019-02-28T18:14:07.603Z,98255.00
2019-02-28T18:16:47.235Z,98264.00
2019-02-28T18:19:59.223Z,98262.00
2019-02-28T18:22:55.443Z,98259.00
2019-02-28T18:28:46.503Z,98256.00
2019-02-28T18:31:14.964Z,98255.00
2019-02-28T18:33:49.546Z,98267.00
2019-02-28T18:36:20.962Z,98260.00
2019-02-28T18:38:48.142Z,98270.00
2019-02-28T18:41:15.642Z,98261.00
2019-02-28T18:43:42.763Z,98262.00
2019-02-28T18:46:09.843Z,98263.00
2019-02-28T18:48:37.003Z,98259.00
2019-02-28T18:51:23.863Z,98264.00
2019-02-28T18:53:50.962Z,98262.00
2019-02-28T18:56:18.202Z,98260.00
2019-02-28T18:58:45.363Z,98266.00
2019-02-28T19:01:12.874Z,98267.00
2019-02-28T19:03:40.055Z,98267.00
2019-02-28T19:06:07.189Z,98267.00
2019-02-28T19:08:34.205Z,98267.00
2019-02-28T19:11:01.355Z,98268.00
2019-02-28T19:13:28.467Z,98264.00
2019-02-28T19:15:55.546Z,98270.00
2019-02-28T19:18:22.658Z,98272.00
2019-02-28T19:20:49.787Z,98268.00
2019-02-28T19:23:17.019Z,98265.00
2019-02-28T19:25:44.703Z,98271.00
2019-02-28T19:28:11.784Z,98265.00
2019-02-28T19:30:38.944Z,98272.00
2019-02-28T19:33:06.104Z,98266.00
2019-02-28T19:35:33.207Z,98274.00
2019-02-28T19:38:00.303Z,98270.00
2019-02-28T19:40:27.464Z,98279.00
2019-02-28T19:42:54.611Z,98274.00
2019-02-28T19:45:38.584Z,98271.00
2019-02-28T19:48:05.684Z,98269.00
2019-02-28T19:50:32.841Z,98275.00
2019-02-28T19:52:59.980Z,98279.00
2019-02-28T19:55:27.191Z,98283.00
2019-02-28T19:57:54.293Z,98288.00
2019-02-28T20:00:21.551Z,98279.00
2019-02-28T20:02:48.671Z,98271.00
2019-02-28T20:05:15.950Z,98278.00
2019-02-28T20:07:43.078Z,98280.00
2019-02-28T20:10:16.771Z,98280.00
2019-02-28T20:12:43.871Z,98278.00
2019-02-28T20:15:14.209Z,98268.00
2019-02-28T20:17:41.555Z,98269.00
2019-02-28T20:20:15.951Z,98272.00
2019-02-28T20:22:43.491Z,98265.00
2019-02-28T20:25:12.511Z,98275.00
2019-02-28T20:27:39.751Z,98280.00
2019-02-28T20:30:16.213Z,98281.00
2019-02-28T20:32:43.392Z,98275.00
2019-02-28T20:35:10.529Z,98274.00
2019-02-28T20:37:37.770Z,98282.00
2019-02-28T20:40:15.570Z,98280.00
2019-02-28T20:42:42.715Z,98283.00
2019-02-28T20:45:11.633Z,98281.00
2019-02-28T20:47:38.791Z,98279.00
2019-02-28T20:50:35.311Z,98291.00
2019-02-28T20:53:02.952Z,98288.00
2019-02-28T20:55:30.055Z,98288.00
2019-02-28T20:57:57.410Z,98296.00
2019-02-28T21:00:26.030Z,98293.00
2019-02-28T21:02:53.171Z,98294.00
2019-02-28T21:05:20.208Z,98287.00
2019-02-28T21:07:47.350Z,98297.00
2019-02-28T21:10:14.490Z,98293.00
2019-02-28T21:12:41.592Z,98298.00
2019-02-28T21:15:11.250Z,98289.00
2019-02-28T21:17:38.411Z,98286.00
2019-02-28T21:20:12.344Z,98295.00
2019-02-28T21:22:40.031Z,98297.00
2019-02-28T21:25:12.852Z,98301.00
2019-02-28T21:27:39.950Z,98307.00
2019-02-28T21:30:22.272Z,98309.00
2019-02-28T21:32:49.454Z,98302.00
2019-02-28T21:35:17.390Z,98308.00
2019-02-28T21:37:46.611Z,98310.00
2019-02-28T21:40:39.250Z,98304.00
2019-02-28T21:43:06.531Z,98308.00
2019-02-28T21:45:33.912Z,98313.00
2019-02-28T21:48:01.015Z,98305.00
2019-02-28T21:50:28.130Z,98310.00
2019-02-28T21:52:55.291Z,98308.00
2019-02-28T21:55:22.431Z,98303.00
2019-02-28T21:57:49.530Z,98310.00
2019-02-28T22:00:30.915Z,98307.00
2019-02-28T22:02:58.135Z,98298.00
2019-02-28T22:05:25.630Z,98313.00
2019-02-28T22:07:52.731Z,98303.00
2019-02-28T22:10:19.977Z,98305.00
2019-02-28T22:12:47.109Z,98303.00
2019-02-28T22:15:20.280Z,98294.00
2019-02-28T22:17:47.365Z,98290.00
2019-02-28T22:20:15.142Z,98291.00
2019-02-28T22:22:42.264Z,98291.00
2019-02-28T22:25:13.018Z,98296.00
2019-02-28T22:27:40.193Z,98298.00
2019-02-28T22:30:14.904Z,98302.00
2019-02-28T22:32:43.783Z,98301.00
2019-02-28T22:35:12.702Z,98293.00
2019-02-28T22:37:39.822Z,98298.00
2019-02-28T22:40:07.003Z,98295.00
2019-02-28T22:42:34.399Z,98301.00
2019-02-28T22:45:01.504Z,98313.00
2019-02-28T22:47:28.642Z,98319.00
2019-02-28T22:49:55.803Z,98327.00
2019-02-28T22:52:24.740Z,98317.00
2019-02-28T22:54:52.184Z,98317.00
2019-02-28T22:57:19.385Z,98311.00
2019-02-28T22:59:46.503Z,98316.00
2019-02-28T23:02:13.642Z,98319.00
2019-02-28T23:04:40.783Z,98321.00
2019-02-28T23:07:07.845Z,98302.00
2019-02-28T23:09:34.984Z,98319.00
2019-02-28T23:12:02.125Z,98324.00
2019-02-28T23:14:29.272Z,98314.00
2019-02-28T23:16:56.508Z,98327.00
2019-02-28T23:19:23.833Z,98325.00
2019-02-28T23:21:50.941Z,98329.00
2019-02-28T23:24:18.000Z,98333.00
2019-02-28T23:27:12.859Z,98338.00
2019-02-28T23:29:45.399Z,98343.00
2019-02-28T23:32:35.999Z,98353.00
2019-02-28T23:35:17.121Z,98352.00
2019-02-28T23:37:44.370Z,98347.00
2019-02-28T23:40:11.419Z,98360.00
2019-02-28T23:42:38.623Z,98353.00
2019-02-28T23:45:06.899Z,98358.00
2019-02-28T23:47:34.043Z,98362.00
2019-02-28T23:50:01.240Z,98356.00
2019-02-28T23:52:28.918Z,98359.00
2019-02-28T23:54:56.039Z,98360.00
2019-02-28T23:57:23.239Z,98357.00
2019-02-28T23:59:50.319Z,98356.00
